sensor_id;sensor_type;location;lat;lon;timestamp;temperature;humidity
28177;DHT22;15461;41.652;9.378;2023-07-13T00:01:51;24.60;99.90
28177;DHT22;15461;41.652;9.378;2023-07-13T00:04:18;24.70;99.90
28177;DHT22;15461;41.652;9.378;2023-07-13T00:06:45;24.60;99.90
28177;DHT22;15461;41.652;9.378;2023-07-13T00:09:12;24.60;99.90
28177;DHT22;15461;41.652;9.378;2023-07-13T00:11:39;24.50;99.90
28177;DHT22;15461;41.652;9.378;2023-07-13T00:14:05;24.50;99.90
28177;DHT22;15461;41.652;9.378;2023-07-13T00:16:34;24.50;99.90
28177;DHT22;15461;41.652;9.378;2023-07-13T00:18:59;24.40;99.90
28177;DHT22;15461;41.652;9.378;2023-07-13T00:21:26;24.30;99.90
28177;DHT22;15461;41.652;9.378;2023-07-13T00:23:52;24.50;99.90
28177;DHT22;15461;41.652;9.378;2023-07-13T00:26:18;24.70;99.90
28177;DHT22;15461;41.652;9.378;2023-07-13T00:28:44;25.10;99.90
28177;DHT22;15461;41.652;9.378;2023-07-13T00:31:11;25.30;99.90
28177;DHT22;15461;41.652;9.378;2023-07-13T00:33:37;25.60;99.90
28177;DHT22;15461;41.652;9.378;2023-07-13T00:36:04;25.90;99.90
28177;DHT22;15461;41.652;9.378;2023-07-13T00:38:30;26.10;99.90
28177;DHT22;15461;41.652;9.378;2023-07-13T00:40:56;26.40;99.90
28177;DHT22;15461;41.652;9.378;2023-07-13T00:43:26;26.50;99.90
28177;DHT22;15461;41.652;9.378;2023-07-13T00:48:25;26.80;99.90
28177;DHT22;15461;41.652;9.378;2023-07-13T00:50:56;26.90;99.90
28177;DHT22;15461;41.652;9.378;2023-07-13T00:53:27;27.00;99.90
28177;DHT22;15461;41.652;9.378;2023-07-13T00:55:55;27.20;99.90
28177;DHT22;15461;41.652;9.378;2023-07-13T00:58:24;27.40;99.90
28177;DHT22;15461;41.652;9.378;2023-07-13T01:00:50;27.60;99.90
28177;DHT22;15461;41.652;9.378;2023-07-13T01:03:17;27.60;99.90
28177;DHT22;15461;41.652;9.378;2023-07-13T01:05:44;27.60;99.90
28177;DHT22;15461;41.652;9.378;2023-07-13T01:08:12;27.70;99.90
28177;DHT22;15461;41.652;9.378;2023-07-13T01:10:38;27.70;99.90
28177;DHT22;15461;41.652;9.378;2023-07-13T01:13:09;27.60;99.90
28177;DHT22;15461;41.652;9.378;2023-07-13T01:18:08;27.50;99.90
28177;DHT22;15461;41.652;9.378;2023-07-13T01:20:35;27.40;99.90
28177;DHT22;15461;41.652;9.378;2023-07-13T01:23:07;27.20;99.90
28177;DHT22;15461;41.652;9.378;2023-07-13T01:25:34;27.20;99.90
28177;DHT22;15461;41.652;9.378;2023-07-13T01:28:02;27.10;99.90
28177;DHT22;15461;41.652;9.378;2023-07-13T01:30:27;27.00;99.90
28177;DHT22;15461;41.652;9.378;2023-07-13T01:32:53;26.90;99.90
28177;DHT22;15461;41.652;9.378;2023-07-13T01:35:19;26.90;99.90
28177;DHT22;15461;41.652;9.378;2023-07-13T01:37:45;26.80;99.90
28177;DHT22;15461;41.652;9.378;2023-07-13T01:40:12;26.60;99.90
28177;DHT22;15461;41.652;9.378;2023-07-13T01:42:38;26.50;99.90
28177;DHT22;15461;41.652;9.378;2023-07-13T01:45:05;26.40;99.90
28177;DHT22;15461;41.652;9.378;2023-07-13T01:47:31;26.40;99.90
28177;DHT22;15461;41.652;9.378;2023-07-13T01:49:57;26.30;99.90
28177;DHT22;15461;41.652;9.378;2023-07-13T01:52:23;26.20;99.90
28177;DHT22;15461;41.652;9.378;2023-07-13T01:54:49;26.20;99.90
28177;DHT22;15461;41.652;9.378;2023-07-13T01:57:16;26.10;99.90
28177;DHT22;15461;41.652;9.378;2023-07-13T01:59:42;26.10;99.90
28177;DHT22;15461;41.652;9.378;2023-07-13T02:02:08;26.20;99.90
28177;DHT22;15461;41.652;9.378;2023-07-13T02:04:34;26.20;99.90
28177;DHT22;15461;41.652;9.378;2023-07-13T02:07:00;26.10;99.90
28177;DHT22;15461;41.652;9.378;2023-07-13T02:09:26;26.20;99.90
28177;DHT22;15461;41.652;9.378;2023-07-13T02:11:52;26.20;99.90
28177;DHT22;15461;41.652;9.378;2023-07-13T02:14:17;26.30;99.90
28177;DHT22;15461;41.652;9.378;2023-07-13T02:16:43;26.20;99.90
28177;DHT22;15461;41.652;9.378;2023-07-13T02:19:09;26.30;99.90
28177;DHT22;15461;41.652;9.378;2023-07-13T02:21:35;26.40;99.90
28177;DHT22;15461;41.652;9.378;2023-07-13T02:24:01;26.40;99.90
28177;DHT22;15461;41.652;9.378;2023-07-13T02:26:27;26.40;99.90
28177;DHT22;15461;41.652;9.378;2023-07-13T02:28:53;26.40;99.90
28177;DHT22;15461;41.652;9.378;2023-07-13T02:31:19;26.40;99.90
28177;DHT22;15461;41.652;9.378;2023-07-13T02:33:45;26.30;99.90
28177;DHT22;15461;41.652;9.378;2023-07-13T02:36:12;26.30;99.90
28177;DHT22;15461;41.652;9.378;2023-07-13T02:38:39;26.30;99.90
28177;DHT22;15461;41.652;9.378;2023-07-13T02:41:06;26.20;99.90
28177;DHT22;15461;41.652;9.378;2023-07-13T02:43:33;26.10;99.90
28177;DHT22;15461;41.652;9.378;2023-07-13T02:46:00;26.10;99.90
28177;DHT22;15461;41.652;9.378;2023-07-13T02:48:33;26.10;99.90
28177;DHT22;15461;41.652;9.378;2023-07-13T02:50:59;26.10;99.90
28177;DHT22;15461;41.652;9.378;2023-07-13T02:53:25;26.10;99.90
28177;DHT22;15461;41.652;9.378;2023-07-13T02:55:52;26.10;99.90
28177;DHT22;15461;41.652;9.378;2023-07-13T02:58:18;26.10;99.90
28177;DHT22;15461;41.652;9.378;2023-07-13T03:00:45;26.10;99.90
28177;DHT22;15461;41.652;9.378;2023-07-13T03:03:12;26.00;99.90
28177;DHT22;15461;41.652;9.378;2023-07-13T03:05:41;26.00;99.90
28177;DHT22;15461;41.652;9.378;2023-07-13T03:08:11;26.00;99.90
28177;DHT22;15461;41.652;9.378;2023-07-13T03:10:37;25.90;99.90
28177;DHT22;15461;41.652;9.378;2023-07-13T03:13:06;25.80;99.90
28177;DHT22;15461;41.652;9.378;2023-07-13T03:15:33;25.80;99.90
28177;DHT22;15461;41.652;9.378;2023-07-13T03:17:59;25.80;99.90
28177;DHT22;15461;41.652;9.378;2023-07-13T03:20:25;25.80;99.90
28177;DHT22;15461;41.652;9.378;2023-07-13T03:22:50;25.80;99.90
28177;DHT22;15461;41.652;9.378;2023-07-13T03:25:17;25.70;99.90
28177;DHT22;15461;41.652;9.378;2023-07-13T03:27:43;25.70;99.90
28177;DHT22;15461;41.652;9.378;2023-07-13T03:30:09;25.80;99.90
28177;DHT22;15461;41.652;9.378;2023-07-13T03:32:36;25.70;99.90
28177;DHT22;15461;41.652;9.378;2023-07-13T03:35:02;25.70;99.90
28177;DHT22;15461;41.652;9.378;2023-07-13T03:37:31;25.70;99.90
28177;DHT22;15461;41.652;9.378;2023-07-13T03:39:57;25.70;99.90
28177;DHT22;15461;41.652;9.378;2023-07-13T03:42:23;25.70;99.90
28177;DHT22;15461;41.652;9.378;2023-07-13T03:44:48;25.60;99.90
28177;DHT22;15461;41.652;9.378;2023-07-13T03:47:18;25.60;99.90
28177;DHT22;15461;41.652;9.378;2023-07-13T03:49:45;25.50;99.90
28177;DHT22;15461;41.652;9.378;2023-07-13T03:52:13;25.50;99.90
28177;DHT22;15461;41.652;9.378;2023-07-13T03:54:38;25.50;99.90
28177;DHT22;15461;41.652;9.378;2023-07-13T03:57:06;25.50;99.90
28177;DHT22;15461;41.652;9.378;2023-07-13T03:59:34;25.50;99.90
28177;DHT22;15461;41.652;9.378;2023-07-13T04:02:01;25.50;99.90
28177;DHT22;15461;41.652;9.378;2023-07-13T04:04:27;25.50;99.90
28177;DHT22;15461;41.652;9.378;2023-07-13T04:06:53;25.50;99.90
28177;DHT22;15461;41.652;9.378;2023-07-13T04:09:19;25.50;99.90
28177;DHT22;15461;41.652;9.378;2023-07-13T04:11:45;25.50;99.90
28177;DHT22;15461;41.652;9.378;2023-07-13T04:14:10;25.40;99.90
28177;DHT22;15461;41.652;9.378;2023-07-13T04:16:36;25.40;99.90
28177;DHT22;15461;41.652;9.378;2023-07-13T04:19:02;25.40;99.90
28177;DHT22;15461;41.652;9.378;2023-07-13T04:21:29;25.40;99.90
28177;DHT22;15461;41.652;9.378;2023-07-13T04:23:56;25.40;99.90
28177;DHT22;15461;41.652;9.378;2023-07-13T04:26:22;25.40;99.90
28177;DHT22;15461;41.652;9.378;2023-07-13T04:28:50;25.50;99.90
28177;DHT22;15461;41.652;9.378;2023-07-13T04:31:16;25.40;99.90
28177;DHT22;15461;41.652;9.378;2023-07-13T04:33:42;25.40;99.90
28177;DHT22;15461;41.652;9.378;2023-07-13T04:36:09;25.40;99.90
28177;DHT22;15461;41.652;9.378;2023-07-13T04:38:35;25.40;99.90
28177;DHT22;15461;41.652;9.378;2023-07-13T04:41:03;25.40;99.90
28177;DHT22;15461;41.652;9.378;2023-07-13T04:43:30;25.30;99.90
28177;DHT22;15461;41.652;9.378;2023-07-13T04:45:56;25.30;99.90
28177;DHT22;15461;41.652;9.378;2023-07-13T04:48:23;25.40;99.90
28177;DHT22;15461;41.652;9.378;2023-07-13T04:50:55;25.40;99.90
28177;DHT22;15461;41.652;9.378;2023-07-13T04:53:21;25.40;99.90
28177;DHT22;15461;41.652;9.378;2023-07-13T04:55:47;25.40;99.90
28177;DHT22;15461;41.652;9.378;2023-07-13T04:58:13;25.40;99.90
28177;DHT22;15461;41.652;9.378;2023-07-13T05:00:39;25.40;99.90
28177;DHT22;15461;41.652;9.378;2023-07-13T05:03:05;25.40;99.90
28177;DHT22;15461;41.652;9.378;2023-07-13T05:05:31;25.40;99.90
28177;DHT22;15461;41.652;9.378;2023-07-13T05:07:57;25.50;99.90
28177;DHT22;15461;41.652;9.378;2023-07-13T05:10:23;25.50;99.90
28177;DHT22;15461;41.652;9.378;2023-07-13T05:12:49;25.50;99.90
28177;DHT22;15461;41.652;9.378;2023-07-13T05:15:16;25.50;99.90
28177;DHT22;15461;41.652;9.378;2023-07-13T05:17:49;25.50;99.90
28177;DHT22;15461;41.652;9.378;2023-07-13T05:20:17;25.50;99.90
28177;DHT22;15461;41.652;9.378;2023-07-13T05:22:43;25.50;99.90
28177;DHT22;15461;41.652;9.378;2023-07-13T05:25:09;25.50;99.90
28177;DHT22;15461;41.652;9.378;2023-07-13T05:27:35;25.50;99.90
28177;DHT22;15461;41.652;9.378;2023-07-13T05:30:03;25.50;99.90
28177;DHT22;15461;41.652;9.378;2023-07-13T05:32:29;25.60;99.90
28177;DHT22;15461;41.652;9.378;2023-07-13T05:34:55;25.60;99.90
28177;DHT22;15461;41.652;9.378;2023-07-13T05:37:21;25.60;99.90
28177;DHT22;15461;41.652;9.378;2023-07-13T05:39:47;25.60;99.90
28177;DHT22;15461;41.652;9.378;2023-07-13T05:42:12;25.70;99.90
28177;DHT22;15461;41.652;9.378;2023-07-13T05:44:38;25.70;99.90
28177;DHT22;15461;41.652;9.378;2023-07-13T05:47:05;25.70;99.90
28177;DHT22;15461;41.652;9.378;2023-07-13T05:49:30;25.70;99.90
28177;DHT22;15461;41.652;9.378;2023-07-13T05:51:57;25.80;99.90
28177;DHT22;15461;41.652;9.378;2023-07-13T05:54:22;25.80;99.90
28177;DHT22;15461;41.652;9.378;2023-07-13T05:56:48;25.80;99.90
28177;DHT22;15461;41.652;9.378;2023-07-13T05:59:14;25.90;99.90
28177;DHT22;15461;41.652;9.378;2023-07-13T06:01:41;26.00;99.90
28177;DHT22;15461;41.652;9.378;2023-07-13T06:04:06;26.00;99.90
28177;DHT22;15461;41.652;9.378;2023-07-13T06:06:32;26.10;99.90
28177;DHT22;15461;41.652;9.378;2023-07-13T06:08:58;26.20;99.90
28177;DHT22;15461;41.652;9.378;2023-07-13T06:11:26;26.30;99.90
28177;DHT22;15461;41.652;9.378;2023-07-13T06:13:53;26.30;99.90
28177;DHT22;15461;41.652;9.378;2023-07-13T06:16:20;26.40;99.90
28177;DHT22;15461;41.652;9.378;2023-07-13T06:18:46;26.40;99.90
28177;DHT22;15461;41.652;9.378;2023-07-13T06:21:17;26.40;99.90
28177;DHT22;15461;41.652;9.378;2023-07-13T06:23:45;26.40;99.90
28177;DHT22;15461;41.652;9.378;2023-07-13T06:26:13;26.50;99.90
28177;DHT22;15461;41.652;9.378;2023-07-13T06:28:39;26.50;99.90
28177;DHT22;15461;41.652;9.378;2023-07-13T06:31:10;26.60;99.90
28177;DHT22;15461;41.652;9.378;2023-07-13T06:33:36;26.70;99.90
28177;DHT22;15461;41.652;9.378;2023-07-13T06:36:03;26.90;99.90
28177;DHT22;15461;41.652;9.378;2023-07-13T06:38:30;27.00;99.90
28177;DHT22;15461;41.652;9.378;2023-07-13T06:40:57;27.10;99.90
28177;DHT22;15461;41.652;9.378;2023-07-13T06:43:23;27.10;99.90
28177;DHT22;15461;41.652;9.378;2023-07-13T06:45:50;27.20;99.90
28177;DHT22;15461;41.652;9.378;2023-07-13T06:48:18;27.20;99.90
28177;DHT22;15461;41.652;9.378;2023-07-13T06:50:45;27.40;99.90
28177;DHT22;15461;41.652;9.378;2023-07-13T06:53:12;27.40;99.90
28177;DHT22;15461;41.652;9.378;2023-07-13T06:55:39;27.40;99.90
28177;DHT22;15461;41.652;9.378;2023-07-13T06:58:05;27.50;99.90
28177;DHT22;15461;41.652;9.378;2023-07-13T07:00:32;27.60;99.90
28177;DHT22;15461;41.652;9.378;2023-07-13T07:02:57;27.60;99.90
28177;DHT22;15461;41.652;9.378;2023-07-13T07:05:23;27.70;99.90
28177;DHT22;15461;41.652;9.378;2023-07-13T07:07:50;27.70;99.90
28177;DHT22;15461;41.652;9.378;2023-07-13T07:10:17;27.70;99.90
28177;DHT22;15461;41.652;9.378;2023-07-13T07:12:43;27.70;99.90
28177;DHT22;15461;41.652;9.378;2023-07-13T07:15:10;27.70;99.90
28177;DHT22;15461;41.652;9.378;2023-07-13T07:17:36;27.80;99.90
28177;DHT22;15461;41.652;9.378;2023-07-13T07:20:02;27.80;99.90
28177;DHT22;15461;41.652;9.378;2023-07-13T07:22:29;27.80;99.90
28177;DHT22;15461;41.652;9.378;2023-07-13T07:24:56;27.80;99.90
28177;DHT22;15461;41.652;9.378;2023-07-13T07:27:22;27.90;99.90
28177;DHT22;15461;41.652;9.378;2023-07-13T07:29:48;28.00;99.90
28177;DHT22;15461;41.652;9.378;2023-07-13T07:32:14;28.00;99.90
28177;DHT22;15461;41.652;9.378;2023-07-13T07:34:40;27.90;99.90
28177;DHT22;15461;41.652;9.378;2023-07-13T07:37:06;28.00;99.90
28177;DHT22;15461;41.652;9.378;2023-07-13T07:39:32;28.00;99.90
28177;DHT22;15461;41.652;9.378;2023-07-13T07:41:58;28.10;99.90
28177;DHT22;15461;41.652;9.378;2023-07-13T07:44:24;28.20;99.90
28177;DHT22;15461;41.652;9.378;2023-07-13T07:46:50;28.20;99.90
28177;DHT22;15461;41.652;9.378;2023-07-13T07:49:16;28.30;99.90
28177;DHT22;15461;41.652;9.378;2023-07-13T07:51:42;28.40;99.90
28177;DHT22;15461;41.652;9.378;2023-07-13T07:54:08;28.40;99.90
28177;DHT22;15461;41.652;9.378;2023-07-13T07:56:33;28.40;99.90
28177;DHT22;15461;41.652;9.378;2023-07-13T07:58:59;28.40;99.90
28177;DHT22;15461;41.652;9.378;2023-07-13T08:01:25;28.40;99.90
28177;DHT22;15461;41.652;9.378;2023-07-13T08:03:51;28.40;99.90
28177;DHT22;15461;41.652;9.378;2023-07-13T08:06:17;28.40;99.90
28177;DHT22;15461;41.652;9.378;2023-07-13T08:08:45;28.50;99.90
28177;DHT22;15461;41.652;9.378;2023-07-13T08:11:11;28.60;99.90
28177;DHT22;15461;41.652;9.378;2023-07-13T08:13:37;28.70;99.90
28177;DHT22;15461;41.652;9.378;2023-07-13T08:16:05;28.70;99.90
28177;DHT22;15461;41.652;9.378;2023-07-13T08:18:31;28.80;99.90
28177;DHT22;15461;41.652;9.378;2023-07-13T08:20:57;28.70;99.90
28177;DHT22;15461;41.652;9.378;2023-07-13T08:23:25;28.80;99.90
28177;DHT22;15461;41.652;9.378;2023-07-13T08:25:54;28.90;99.90
28177;DHT22;15461;41.652;9.378;2023-07-13T08:28:21;29.00;99.90
28177;DHT22;15461;41.652;9.378;2023-07-13T08:30:48;29.00;99.90
28177;DHT22;15461;41.652;9.378;2023-07-13T08:33:18;29.10;99.90
28177;DHT22;15461;41.652;9.378;2023-07-13T08:35:48;29.10;99.90
28177;DHT22;15461;41.652;9.378;2023-07-13T08:38:15;29.10;99.90
28177;DHT22;15461;41.652;9.378;2023-07-13T08:40:41;29.20;99.90
28177;DHT22;15461;41.652;9.378;2023-07-13T08:43:16;29.20;99.90
28177;DHT22;15461;41.652;9.378;2023-07-13T08:45:46;29.30;99.90
28177;DHT22;15461;41.652;9.378;2023-07-13T08:48:27;29.40;99.90
28177;DHT22;15461;41.652;9.378;2023-07-13T08:50:56;29.60;99.90
28177;DHT22;15461;41.652;9.378;2023-07-13T08:53:24;29.80;99.90
28177;DHT22;15461;41.652;9.378;2023-07-13T08:55:57;29.80;99.90
28177;DHT22;15461;41.652;9.378;2023-07-13T08:58:25;30.00;99.90
28177;DHT22;15461;41.652;9.378;2023-07-13T09:00:58;30.00;99.90
28177;DHT22;15461;41.652;9.378;2023-07-13T09:03:30;30.00;99.90
28177;DHT22;15461;41.652;9.378;2023-07-13T09:05:59;30.00;99.90
28177;DHT22;15461;41.652;9.378;2023-07-13T09:16:58;29.90;99.90
28177;DHT22;15461;41.652;9.378;2023-07-13T09:19:28;29.90;99.90
28177;DHT22;15461;41.652;9.378;2023-07-13T09:21:56;29.80;99.90
28177;DHT22;15461;41.652;9.378;2023-07-13T09:24:38;30.00;99.90
28177;DHT22;15461;41.652;9.378;2023-07-13T09:27:31;30.20;99.90
28177;DHT22;15461;41.652;9.378;2023-07-13T09:32:50;30.70;99.90
28177;DHT22;15461;41.652;9.378;2023-07-13T09:35:21;30.70;99.90
28177;DHT22;15461;41.652;9.378;2023-07-13T09:37:48;30.80;99.90
28177;DHT22;15461;41.652;9.378;2023-07-13T09:40:28;31.10;99.90
28177;DHT22;15461;41.652;9.378;2023-07-13T09:42:57;31.00;99.90
28177;DHT22;15461;41.652;9.378;2023-07-13T09:45:28;31.30;99.90
28177;DHT22;15461;41.652;9.378;2023-07-13T09:48:07;31.40;99.90
28177;DHT22;15461;41.652;9.378;2023-07-13T09:50:35;31.30;99.90
28177;DHT22;15461;41.652;9.378;2023-07-13T09:53:02;31.40;99.90
28177;DHT22;15461;41.652;9.378;2023-07-13T09:55:34;31.30;99.90
28177;DHT22;15461;41.652;9.378;2023-07-13T09:58:04;31.30;99.90
28177;DHT22;15461;41.652;9.378;2023-07-13T10:00:31;31.30;99.90
28177;DHT22;15461;41.652;9.378;2023-07-13T10:03:05;31.50;99.90
28177;DHT22;15461;41.652;9.378;2023-07-13T10:05:40;31.50;99.90
28177;DHT22;15461;41.652;9.378;2023-07-13T10:08:20;31.50;99.90
28177;DHT22;15461;41.652;9.378;2023-07-13T10:10:49;31.40;99.90
28177;DHT22;15461;41.652;9.378;2023-07-13T10:13:39;31.50;99.90
28177;DHT22;15461;41.652;9.378;2023-07-13T10:16:07;31.90;99.90
28177;DHT22;15461;41.652;9.378;2023-07-13T10:18:54;32.10;99.90
28177;DHT22;15461;41.652;9.378;2023-07-13T10:21:22;32.30;99.90
28177;DHT22;15461;41.652;9.378;2023-07-13T10:23:55;32.30;99.90
28177;DHT22;15461;41.652;9.378;2023-07-13T10:26:29;31.70;99.90
28177;DHT22;15461;41.652;9.378;2023-07-13T10:31:32;32.00;99.90
28177;DHT22;15461;41.652;9.378;2023-07-13T10:33:57;32.10;99.90
28177;DHT22;15461;41.652;9.378;2023-07-13T10:36:32;32.10;99.90
28177;DHT22;15461;41.652;9.378;2023-07-13T10:41:41;32.30;99.90
28177;DHT22;15461;41.652;9.378;2023-07-13T10:44:24;32.50;99.90
28177;DHT22;15461;41.652;9.378;2023-07-13T10:46:57;32.50;99.90
28177;DHT22;15461;41.652;9.378;2023-07-13T10:49:25;32.50;99.90
28177;DHT22;15461;41.652;9.378;2023-07-13T10:51:52;32.60;99.90
28177;DHT22;15461;41.652;9.378;2023-07-13T10:54:34;32.50;99.90
28177;DHT22;15461;41.652;9.378;2023-07-13T10:57:26;32.40;99.90
28177;DHT22;15461;41.652;9.378;2023-07-13T11:02:28;31.90;99.90
28177;DHT22;15461;41.652;9.378;2023-07-13T11:04:55;31.70;99.90
28177;DHT22;15461;41.652;9.378;2023-07-13T11:07:30;31.60;99.90
28177;DHT22;15461;41.652;9.378;2023-07-13T11:10:04;31.60;99.90
28177;DHT22;15461;41.652;9.378;2023-07-13T11:12:51;31.60;99.90
28177;DHT22;15461;41.652;9.378;2023-07-13T11:15:32;31.50;99.90
28177;DHT22;15461;41.652;9.378;2023-07-13T11:18:03;31.30;99.90
28177;DHT22;15461;41.652;9.378;2023-07-13T11:20:35;31.30;99.90
28177;DHT22;15461;41.652;9.378;2023-07-13T11:25:39;31.00;99.90
28177;DHT22;15461;41.652;9.378;2023-07-13T11:28:26;30.90;99.90
28177;DHT22;15461;41.652;9.378;2023-07-13T11:33:28;30.90;99.90
28177;DHT22;15461;41.652;9.378;2023-07-13T11:41:35;30.30;99.90
28177;DHT22;15461;41.652;9.378;2023-07-13T11:44:14;30.50;99.90
28177;DHT22;15461;41.652;9.378;2023-07-13T11:46:49;30.70;99.90
28177;DHT22;15461;41.652;9.378;2023-07-13T11:49:18;30.80;99.90
28177;DHT22;15461;41.652;9.378;2023-07-13T11:51:44;30.90;99.90
28177;DHT22;15461;41.652;9.378;2023-07-13T11:54:41;30.90;99.90
28177;DHT22;15461;41.652;9.378;2023-07-13T11:57:28;30.90;99.90
28177;DHT22;15461;41.652;9.378;2023-07-13T11:59:55;30.90;99.90
28177;DHT22;15461;41.652;9.378;2023-07-13T12:02:46;30.90;99.90
28177;DHT22;15461;41.652;9.378;2023-07-13T12:05:16;30.90;99.90
28177;DHT22;15461;41.652;9.378;2023-07-13T12:07:50;30.90;99.90
28177;DHT22;15461;41.652;9.378;2023-07-13T12:10:34;31.00;99.90
28177;DHT22;15461;41.652;9.378;2023-07-13T12:13:05;30.90;99.90
28177;DHT22;15461;41.652;9.378;2023-07-13T12:15:43;30.80;99.90
28177;DHT22;15461;41.652;9.378;2023-07-13T12:18:21;30.80;99.90
28177;DHT22;15461;41.652;9.378;2023-07-13T12:20:51;30.70;99.90
28177;DHT22;15461;41.652;9.378;2023-07-13T12:25:51;31.10;99.90
28177;DHT22;15461;41.652;9.378;2023-07-13T12:28:23;31.10;99.90
28177;DHT22;15461;41.652;9.378;2023-07-13T12:30:58;31.20;99.90
28177;DHT22;15461;41.652;9.378;2023-07-13T12:33:27;31.00;99.90
28177;DHT22;15461;41.652;9.378;2023-07-13T12:35:53;30.90;99.90
28177;DHT22;15461;41.652;9.378;2023-07-13T12:38:19;30.90;99.90
28177;DHT22;15461;41.652;9.378;2023-07-13T12:40:50;31.00;99.90
28177;DHT22;15461;41.652;9.378;2023-07-13T12:43:16;31.10;99.90
28177;DHT22;15461;41.652;9.378;2023-07-13T12:46:02;31.00;99.90
28177;DHT22;15461;41.652;9.378;2023-07-13T12:48:28;31.10;99.90
28177;DHT22;15461;41.652;9.378;2023-07-13T12:50:55;31.20;99.90
28177;DHT22;15461;41.652;9.378;2023-07-13T12:53:27;31.40;99.90
28177;DHT22;15461;41.652;9.378;2023-07-13T12:55:57;31.50;99.90
28177;DHT22;15461;41.652;9.378;2023-07-13T12:58:28;31.40;99.90
28177;DHT22;15461;41.652;9.378;2023-07-13T13:00:57;31.30;99.90
28177;DHT22;15461;41.652;9.378;2023-07-13T13:04:08;31.40;99.90
28177;DHT22;15461;41.652;9.378;2023-07-13T13:06:27;31.50;99.90
28177;DHT22;15461;41.652;9.378;2023-07-13T13:08:55;31.50;99.90
28177;DHT22;15461;41.652;9.378;2023-07-13T13:20:53;31.50;99.90
28177;DHT22;15461;41.652;9.378;2023-07-13T13:23:20;31.50;99.90
28177;DHT22;15461;41.652;9.378;2023-07-13T13:25:49;31.40;99.90
28177;DHT22;15461;41.652;9.378;2023-07-13T13:28:21;31.40;99.90
28177;DHT22;15461;41.652;9.378;2023-07-13T13:30:51;31.40;99.90
28177;DHT22;15461;41.652;9.378;2023-07-13T13:33:18;31.20;99.90
28177;DHT22;15461;41.652;9.378;2023-07-13T13:35:44;31.30;99.90
28177;DHT22;15461;41.652;9.378;2023-07-13T13:38:21;31.30;99.90
28177;DHT22;15461;41.652;9.378;2023-07-13T13:40:49;31.40;99.90
28177;DHT22;15461;41.652;9.378;2023-07-13T13:43:24;31.40;99.90
28177;DHT22;15461;41.652;9.378;2023-07-13T13:45:55;31.50;99.90
28177;DHT22;15461;41.652;9.378;2023-07-13T13:48:32;31.70;99.90
28177;DHT22;15461;41.652;9.378;2023-07-13T13:51:00;31.80;99.90
28177;DHT22;15461;41.652;9.378;2023-07-13T13:53:26;31.90;99.90
28177;DHT22;15461;41.652;9.378;2023-07-13T13:55:52;31.90;99.90
28177;DHT22;15461;41.652;9.378;2023-07-13T13:58:19;31.90;99.90
28177;DHT22;15461;41.652;9.378;2023-07-13T14:00:46;32.10;99.90
28177;DHT22;15461;41.652;9.378;2023-07-13T14:03:17;32.20;99.90
28177;DHT22;15461;41.652;9.378;2023-07-13T14:05:44;32.10;99.90
28177;DHT22;15461;41.652;9.378;2023-07-13T14:08:20;31.90;99.90
28177;DHT22;15461;41.652;9.378;2023-07-13T14:10:49;31.90;99.90
28177;DHT22;15461;41.652;9.378;2023-07-13T14:13:36;31.90;99.90
28177;DHT22;15461;41.652;9.378;2023-07-13T14:16:15;31.90;99.90
28177;DHT22;15461;41.652;9.378;2023-07-13T14:18:47;31.90;99.90
28177;DHT22;15461;41.652;9.378;2023-07-13T14:21:18;31.90;99.90
28177;DHT22;15461;41.652;9.378;2023-07-13T14:23:45;31.90;99.90
28177;DHT22;15461;41.652;9.378;2023-07-13T14:26:15;31.90;99.90
28177;DHT22;15461;41.652;9.378;2023-07-13T14:28:43;32.10;99.90
28177;DHT22;15461;41.652;9.378;2023-07-13T14:31:11;32.20;99.90
28177;DHT22;15461;41.652;9.378;2023-07-13T14:33:37;32.20;99.90
28177;DHT22;15461;41.652;9.378;2023-07-13T14:38:41;32.30;99.90
28177;DHT22;15461;41.652;9.378;2023-07-13T14:41:08;32.30;99.90
28177;DHT22;15461;41.652;9.378;2023-07-13T14:43:33;32.30;99.90
28177;DHT22;15461;41.652;9.378;2023-07-13T14:45:59;32.40;99.90
28177;DHT22;15461;41.652;9.378;2023-07-13T14:48:25;32.20;99.90
28177;DHT22;15461;41.652;9.378;2023-07-13T14:50:54;32.10;99.90
28177;DHT22;15461;41.652;9.378;2023-07-13T14:53:21;32.20;99.90
28177;DHT22;15461;41.652;9.378;2023-07-13T14:55:48;32.10;99.90
28177;DHT22;15461;41.652;9.378;2023-07-13T14:58:13;32.10;99.90
28177;DHT22;15461;41.652;9.378;2023-07-13T15:00:39;32.10;99.90
28177;DHT22;15461;41.652;9.378;2023-07-13T15:03:18;32.00;99.90
28177;DHT22;15461;41.652;9.378;2023-07-13T15:05:47;32.10;99.90
28177;DHT22;15461;41.652;9.378;2023-07-13T15:08:13;32.10;99.90
28177;DHT22;15461;41.652;9.378;2023-07-13T15:10:40;32.20;99.90
28177;DHT22;15461;41.652;9.378;2023-07-13T15:13:17;32.20;99.90
28177;DHT22;15461;41.652;9.378;2023-07-13T15:15:47;32.20;99.90
28177;DHT22;15461;41.652;9.378;2023-07-13T15:18:15;32.20;99.90
28177;DHT22;15461;41.652;9.378;2023-07-13T15:20:44;32.10;99.90
28177;DHT22;15461;41.652;9.378;2023-07-13T15:23:14;32.10;99.90
28177;DHT22;15461;41.652;9.378;2023-07-13T15:25:41;32.10;99.90
28177;DHT22;15461;41.652;9.378;2023-07-13T15:28:07;32.10;99.90
28177;DHT22;15461;41.652;9.378;2023-07-13T15:30:42;32.10;99.90
28177;DHT22;15461;41.652;9.378;2023-07-13T15:33:24;32.20;99.90
28177;DHT22;15461;41.652;9.378;2023-07-13T15:35:51;32.20;99.90
28177;DHT22;15461;41.652;9.378;2023-07-13T15:38:27;32.40;99.90
28177;DHT22;15461;41.652;9.378;2023-07-13T15:40:54;32.50;99.90
28177;DHT22;15461;41.652;9.378;2023-07-13T15:43:22;32.50;99.90
28177;DHT22;15461;41.652;9.378;2023-07-13T15:45:48;32.40;99.90
28177;DHT22;15461;41.652;9.378;2023-07-13T15:48:20;32.40;99.90
28177;DHT22;15461;41.652;9.378;2023-07-13T15:50:59;32.40;99.90
28177;DHT22;15461;41.652;9.378;2023-07-13T15:53:29;32.40;99.90
28177;DHT22;15461;41.652;9.378;2023-07-13T15:55:57;32.40;99.90
28177;DHT22;15461;41.652;9.378;2023-07-13T15:58:23;32.30;99.90
28177;DHT22;15461;41.652;9.378;2023-07-13T16:00:50;32.30;99.90
28177;DHT22;15461;41.652;9.378;2023-07-13T16:03:22;32.30;99.90
28177;DHT22;15461;41.652;9.378;2023-07-13T16:05:49;32.40;99.90
28177;DHT22;15461;41.652;9.378;2023-07-13T16:08:28;32.10;99.90
28177;DHT22;15461;41.652;9.378;2023-07-13T16:10:56;31.90;99.90
28177;DHT22;15461;41.652;9.378;2023-07-13T16:13:22;31.80;99.90
28177;DHT22;15461;41.652;9.378;2023-07-13T16:15:50;31.70;99.90
28177;DHT22;15461;41.652;9.378;2023-07-13T16:18:16;31.50;99.90
28177;DHT22;15461;41.652;9.378;2023-07-13T16:20:46;31.50;99.90
28177;DHT22;15461;41.652;9.378;2023-07-13T16:23:13;31.20;99.90
28177;DHT22;15461;41.652;9.378;2023-07-13T16:25:40;31.10;99.90
28177;DHT22;15461;41.652;9.378;2023-07-13T16:28:06;31.20;99.90
28177;DHT22;15461;41.652;9.378;2023-07-13T16:30:32;31.10;99.90